createdAt,value
2022-12-18T00:02:00.743Z,79.30
2022-12-18T00:04:47.594Z,79.08
2022-12-18T00:07:33.669Z,78.79
2022-12-18T00:10:20.147Z,78.64
2022-12-18T00:13:09.820Z,78.56
2022-12-18T00:15:57.028Z,78.48
2022-12-18T00:18:44.202Z,78.66
2022-12-18T00:21:31.109Z,78.59
2022-12-18T00:24:17.590Z,78.53
2022-12-18T00:27:03.931Z,78.57
2022-12-18T00:29:50.587Z,78.76
2022-12-18T00:32:37.061Z,78.68
2022-12-18T00:35:23.586Z,78.74
2022-12-18T00:38:09.733Z,78.86
2022-12-18T00:40:55.700Z,78.85
2022-12-18T00:43:42.269Z,78.90
2022-12-18T00:46:28.486Z,79.09
2022-12-18T00:49:15.947Z,79.14
2022-12-18T00:52:02.401Z,78.95
2022-12-18T00:54:48.675Z,78.77
2022-12-18T00:57:35.022Z,78.86
2022-12-18T01:00:21.918Z,79.09
2022-12-18T01:03:08.334Z,79.25
2022-12-18T01:05:54.568Z,79.14
2022-12-18T01:08:41.027Z,79.04
2022-12-18T01:11:27.705Z,78.77
2022-12-18T01:14:14.210Z,78.82
2022-12-18T01:17:00.721Z,78.82
2022-12-18T01:19:47.352Z,78.77
2022-12-18T01:22:33.678Z,78.80
2022-12-18T01:25:20.138Z,78.69
2022-12-18T01:28:06.760Z,78.71
2022-12-18T01:30:52.688Z,78.77
2022-12-18T01:33:39.423Z,78.88
2022-12-18T01:36:28.154Z,78.94
2022-12-18T01:39:14.766Z,78.89
2022-12-18T01:42:03.317Z,79.03
2022-12-18T01:44:56.404Z,79.03
2022-12-18T01:47:59.155Z,78.98
2022-12-18T01:50:45.636Z,78.85
2022-12-18T01:53:32.191Z,78.93
2022-12-18T01:56:19.860Z,79.14
2022-12-18T01:59:07.142Z,79.30
2022-12-18T02:01:53.914Z,79.12
2022-12-18T02:04:49.166Z,78.99
2022-12-18T02:07:44.486Z,78.73
2022-12-18T02:10:35.714Z,78.64
2022-12-18T02:13:29.566Z,78.57
2022-12-18T02:16:49.335Z,78.47
2022-12-18T02:19:42.090Z,78.52
2022-12-18T02:22:40.783Z,78.51
2022-12-18T02:26:04.572Z,78.47
2022-12-18T02:28:57.518Z,78.54
2022-12-18T02:31:46.547Z,78.65
2022-12-18T02:34:34.012Z,78.71
2022-12-18T02:37:20.640Z,78.75
2022-12-18T02:40:07.510Z,78.65
2022-12-18T02:42:53.984Z,78.80
2022-12-18T02:45:57.087Z,79.02
2022-12-18T02:48:43.204Z,79.13
2022-12-18T02:51:38.827Z,79.35
2022-12-18T02:55:06.347Z,79.07
2022-12-18T02:57:58.055Z,78.70
2022-12-18T03:00:50.046Z,78.66
2022-12-18T03:03:39.991Z,78.81
2022-12-18T03:06:29.223Z,78.72
2022-12-18T03:09:19.003Z,78.90
2022-12-18T03:12:25.235Z,78.84
2022-12-18T03:15:20.594Z,78.86
2022-12-18T03:18:28.627Z,79.03
2022-12-18T03:21:15.320Z,78.91
2022-12-18T03:24:01.516Z,78.73
2022-12-18T03:26:49.031Z,78.64
2022-12-18T03:29:38.839Z,78.68
2022-12-18T03:32:28.226Z,78.63
2022-12-18T03:35:19.781Z,78.45
2022-12-18T03:38:06.491Z,78.44
2022-12-18T03:41:00.913Z,78.57
2022-12-18T03:43:53.212Z,78.69
2022-12-18T03:46:52.587Z,78.57
2022-12-18T03:49:44.915Z,78.83
2022-12-18T03:52:34.251Z,79.00
2022-12-18T03:55:20.954Z,78.76
2022-12-18T03:58:07.228Z,78.93
2022-12-18T04:00:54.259Z,78.81
2022-12-18T04:03:41.261Z,78.62
2022-12-18T04:06:27.988Z,78.49
2022-12-18T04:09:14.728Z,78.62
2022-12-18T04:12:00.744Z,78.55
2022-12-18T04:14:47.120Z,78.44
2022-12-18T04:17:33.144Z,78.57
2022-12-18T04:20:19.533Z,78.59
2022-12-18T04:23:06.187Z,78.65
2022-12-18T04:25:52.447Z,78.70
2022-12-18T04:28:39.027Z,78.79
2022-12-18T04:31:25.468Z,78.66
2022-12-18T04:34:11.722Z,78.74
2022-12-18T04:36:58.135Z,78.60
2022-12-18T04:39:45.538Z,78.85
2022-12-18T04:42:31.736Z,78.88
2022-12-18T04:45:18.435Z,78.85
2022-12-18T04:48:04.803Z,78.84
2022-12-18T04:50:50.898Z,78.79
2022-12-18T04:53:37.563Z,78.65
2022-12-18T04:56:24.000Z,78.85
2022-12-18T04:59:10.676Z,78.65
2022-12-18T05:01:57.157Z,78.73
2022-12-18T05:04:43.325Z,78.52
2022-12-18T05:07:29.633Z,78.58
2022-12-18T05:10:16.016Z,78.30
2022-12-18T05:13:02.674Z,78.20
2022-12-18T05:15:52.812Z,78.26
2022-12-18T05:18:39.160Z,78.28
2022-12-18T05:21:25.805Z,78.12
2022-12-18T05:24:12.602Z,78.21
2022-12-18T05:26:59.224Z,78.09
2022-12-18T05:29:45.853Z,78.20
2022-12-18T05:32:32.493Z,78.15
2022-12-18T05:35:19.037Z,78.07
2022-12-18T05:38:05.232Z,78.06
2022-12-18T05:40:52.077Z,78.23
2022-12-18T05:43:41.389Z,78.18
2022-12-18T05:46:27.866Z,78.14
2022-12-18T05:49:14.219Z,78.27
2022-12-18T05:52:00.583Z,77.91
2022-12-18T05:54:47.091Z,77.99
2022-12-18T05:57:33.528Z,78.01
2022-12-18T06:00:20.156Z,78.04
2022-12-18T06:03:07.243Z,78.32
2022-12-18T06:05:53.363Z,78.36
2022-12-18T06:08:45.835Z,78.13
2022-12-18T06:11:33.045Z,77.95
2022-12-18T06:14:19.327Z,78.12
2022-12-18T06:17:05.967Z,78.17
2022-12-18T06:19:52.075Z,77.83
2022-12-18T06:22:38.542Z,77.76
2022-12-18T06:25:25.135Z,77.58
2022-12-18T06:28:11.655Z,77.77
2022-12-18T06:30:58.331Z,77.69
2022-12-18T06:33:44.820Z,77.90
2022-12-18T06:36:31.250Z,77.84
2022-12-18T06:39:18.032Z,78.17
2022-12-18T06:42:04.453Z,78.11
2022-12-18T06:44:51.234Z,78.23
2022-12-18T06:47:38.062Z,78.46
2022-12-18T06:50:24.614Z,78.44
2022-12-18T06:53:11.188Z,78.31
2022-12-18T06:56:09.408Z,78.24
2022-12-18T06:58:56.690Z,78.04
2022-12-18T07:01:43.130Z,78.10
2022-12-18T07:04:30.736Z,78.17
2022-12-18T07:07:16.980Z,78.29
2022-12-18T07:10:04.067Z,78.27
2022-12-18T07:12:50.200Z,78.08
2022-12-18T07:15:36.563Z,78.20
2022-12-18T07:18:23.112Z,78.11
2022-12-18T07:21:14.830Z,77.85
2022-12-18T07:24:01.371Z,77.93
2022-12-18T07:26:47.812Z,77.87
2022-12-18T07:29:34.283Z,78.05
2022-12-18T07:32:20.779Z,78.08
2022-12-18T07:35:07.349Z,77.65
2022-12-18T07:37:53.774Z,77.57
2022-12-18T07:40:40.071Z,77.45
2022-12-18T07:43:26.443Z,77.28
2022-12-18T07:46:14.905Z,77.15
2022-12-18T07:49:01.464Z,77.03
2022-12-18T07:51:50.147Z,76.39
2022-12-18T07:54:36.632Z,76.32
2022-12-18T07:57:48.769Z,76.46
2022-12-18T08:00:29.193Z,76.36
2022-12-18T08:03:16.094Z,76.70
2022-12-18T08:06:03.397Z,76.21
2022-12-18T08:08:49.486Z,76.44
2022-12-18T08:11:36.320Z,75.88
2022-12-18T08:14:22.916Z,75.62
2022-12-18T08:17:08.965Z,75.78
2022-12-18T08:19:55.353Z,75.85
2022-12-18T08:22:43.172Z,75.55
2022-12-18T08:25:29.397Z,75.95
2022-12-18T08:28:18.596Z,75.75
2022-12-18T08:31:05.443Z,75.57
2022-12-18T08:33:52.406Z,75.69
2022-12-18T08:36:38.766Z,75.77
2022-12-18T08:39:24.882Z,75.44
2022-12-18T08:42:29.719Z,75.07
2022-12-18T08:45:17.695Z,74.14
2022-12-18T08:48:04.240Z,74.25
2022-12-18T08:50:56.928Z,74.44
2022-12-18T08:53:43.612Z,74.62
2022-12-18T08:56:30.994Z,74.12
2022-12-18T08:59:20.041Z,74.34
2022-12-18T09:02:06.588Z,74.45
2022-12-18T09:04:57.385Z,73.99
2022-12-18T09:07:44.258Z,73.67
2022-12-18T09:10:31.129Z,73.67
2022-12-18T09:13:17.994Z,73.61
2022-12-18T09:16:04.933Z,73.44
2022-12-18T09:18:50.948Z,73.21
2022-12-18T09:21:44.798Z,72.91
2022-12-18T09:24:34.370Z,72.61
2022-12-18T09:27:20.497Z,72.43
2022-12-18T09:30:27.645Z,72.46
2022-12-18T09:33:14.758Z,72.41
2022-12-18T09:36:02.388Z,72.41
2022-12-18T09:38:49.088Z,72.08
2022-12-18T09:41:55.777Z,71.96
2022-12-18T09:44:47.429Z,71.89
2022-12-18T09:47:37.597Z,71.70
2022-12-18T09:50:30.616Z,71.70
2022-12-18T09:53:20.539Z,71.76
2022-12-18T09:56:07.144Z,71.95
2022-12-18T09:59:01.126Z,71.71
2022-12-18T10:01:47.738Z,71.77
2022-12-18T10:04:34.073Z,71.76
2022-12-18T10:07:26.113Z,71.79
2022-12-18T10:10:39.808Z,71.96
2022-12-18T10:13:40.546Z,71.67
2022-12-18T10:16:36.244Z,71.76
2022-12-18T10:19:25.645Z,71.74
2022-12-18T10:22:15.318Z,71.62
2022-12-18T10:25:16.771Z,71.85
2022-12-18T10:28:12.607Z,71.72
2022-12-18T10:30:59.244Z,71.41
2022-12-18T10:33:45.670Z,71.75
2022-12-18T10:36:32.108Z,71.96
2022-12-18T10:39:27.226Z,71.83
2022-12-18T10:42:19.946Z,72.33
2022-12-18T10:45:12.549Z,72.45
2022-12-18T10:47:59.545Z,72.40
2022-12-18T10:51:10.455Z,72.15
2022-12-18T10:53:59.024Z,72.28
2022-12-18T10:56:45.583Z,72.11
2022-12-18T10:59:32.727Z,71.72
2022-12-18T11:02:36.124Z,71.82
2022-12-18T11:05:34.439Z,71.83
2022-12-18T11:08:41.963Z,72.23
2022-12-18T11:11:28.793Z,71.92
2022-12-18T11:14:19.216Z,71.98
2022-12-18T11:20:30.831Z,72.07
2022-12-18T11:23:16.774Z,72.20
2022-12-18T11:26:05.037Z,72.28
2022-12-18T11:28:53.607Z,72.38
2022-12-18T11:31:39.616Z,72.28
2022-12-18T11:34:30.269Z,72.42
2022-12-18T11:37:16.738Z,72.71
2022-12-18T11:40:18.981Z,72.83
2022-12-18T11:43:14.704Z,72.41
2022-12-18T11:46:29.069Z,72.27
2022-12-18T11:49:17.118Z,71.94
2022-12-18T11:52:11.404Z,71.93
2022-12-18T11:55:00.858Z,72.25
2022-12-18T11:57:59.711Z,72.06
2022-12-18T12:01:11.655Z,71.40
2022-12-18T12:04:17.078Z,71.91
2022-12-18T12:07:24.560Z,71.91
2022-12-18T12:10:18.284Z,71.69
2022-12-18T12:13:25.408Z,71.41
2022-12-18T12:16:30.341Z,71.58
2022-12-18T12:19:22.536Z,71.91
2022-12-18T12:22:21.886Z,72.45
2022-12-18T12:25:40.638Z,72.62
2022-12-18T12:28:45.602Z,72.63
2022-12-18T12:32:02.294Z,72.88
2022-12-18T12:35:33.147Z,72.78
2022-12-18T12:38:26.572Z,72.83
2022-12-18T12:41:34.735Z,73.28
2022-12-18T12:44:24.845Z,73.24
2022-12-18T12:47:16.323Z,73.08
2022-12-18T12:50:05.901Z,73.07
2022-12-18T12:52:55.666Z,72.68
2022-12-18T12:55:42.243Z,72.30
2022-12-18T12:58:59.560Z,72.26
2022-12-18T13:01:51.018Z,72.16
2022-12-18T13:04:43.079Z,72.37
2022-12-18T13:07:42.210Z,72.40
2022-12-18T13:10:31.422Z,72.85
2022-12-18T13:13:24.259Z,73.33
2022-12-18T13:16:11.663Z,73.49
2022-12-18T13:18:59.692Z,73.74
2022-12-18T13:21:46.620Z,73.83
2022-12-18T13:24:33.969Z,74.05
2022-12-18T13:27:45.036Z,74.12
2022-12-18T13:30:34.445Z,74.12
2022-12-18T13:33:30.423Z,74.13
2022-12-18T13:36:23.298Z,74.19
2022-12-18T13:39:34.758Z,74.18
2022-12-18T13:42:43.623Z,74.29
2022-12-18T13:45:42.048Z,74.55
2022-12-18T13:48:30.018Z,75.13
2022-12-18T13:51:18.880Z,75.10
2022-12-18T13:54:21.147Z,75.23
2022-12-18T13:57:31.694Z,75.42
2022-12-18T14:00:26.784Z,75.43
2022-12-18T14:03:22.611Z,75.76
2022-12-18T14:06:09.439Z,76.00
2022-12-18T14:08:56.039Z,76.21
2022-12-18T14:11:53.774Z,76.16
2022-12-18T14:14:42.895Z,76.29
2022-12-18T14:17:29.381Z,76.38
2022-12-18T14:20:16.749Z,76.68
2022-12-18T14:23:03.273Z,77.20
2022-12-18T14:25:49.839Z,77.24
2022-12-18T14:28:44.524Z,77.64
2022-12-18T14:31:31.407Z,77.49
2022-12-18T14:34:17.987Z,77.95
2022-12-18T14:37:04.278Z,78.17
2022-12-18T14:39:59.109Z,78.12
2022-12-18T14:42:46.239Z,78.31
2022-12-18T14:45:43.836Z,78.45
2022-12-18T14:48:42.008Z,78.58
2022-12-18T14:51:29.962Z,78.80
2022-12-18T14:54:18.208Z,78.98
2022-12-18T14:57:19.718Z,79.14
2022-12-18T15:00:07.889Z,79.33
2022-12-18T15:02:56.224Z,78.99
2022-12-18T15:05:42.343Z,78.80
2022-12-18T15:08:36.719Z,79.13
2022-12-18T15:11:33.157Z,79.44
2022-12-18T15:14:30.053Z,79.53
2022-12-18T15:17:23.499Z,79.85
2022-12-18T15:20:11.187Z,79.66
2022-12-18T15:22:57.828Z,79.74
2022-12-18T15:25:44.232Z,79.56
2022-12-18T15:28:46.969Z,79.70
2022-12-18T15:31:36.309Z,79.74
2022-12-18T15:34:23.353Z,79.71
2022-12-18T15:37:09.512Z,79.65
2022-12-18T15:39:56.164Z,79.86
2022-12-18T15:43:01.477Z,80.22
2022-12-18T15:45:48.115Z,80.04
2022-12-18T15:48:41.210Z,80.46
2022-12-18T15:51:29.598Z,79.91
2022-12-18T15:54:17.167Z,80.04
2022-12-18T15:57:21.998Z,80.31
2022-12-18T16:00:12.773Z,80.03
2022-12-18T16:02:59.216Z,79.98
2022-12-18T16:05:45.787Z,80.14
2022-12-18T16:08:32.445Z,80.13
2022-12-18T16:11:38.910Z,80.06
2022-12-18T16:14:29.294Z,80.09
2022-12-18T16:17:15.589Z,80.12
2022-12-18T16:20:02.248Z,80.15
2022-12-18T16:22:49.155Z,80.18
2022-12-18T16:25:35.661Z,80.60
2022-12-18T16:28:22.019Z,80.50
2022-12-18T16:31:08.701Z,80.57
2022-12-18T16:34:19.432Z,80.08
2022-12-18T16:37:08.554Z,80.03
2022-12-18T16:39:54.870Z,80.81
2022-12-18T16:42:42.070Z,81.25
2022-12-18T16:45:34.124Z,80.99
2022-12-18T16:48:20.782Z,81.10
2022-12-18T16:51:07.374Z,81.05
2022-12-18T16:53:55.066Z,81.04
2022-12-18T16:56:42.880Z,80.99
2022-12-18T16:59:29.447Z,80.83
2022-12-18T17:02:24.282Z,81.06
2022-12-18T17:05:11.163Z,81.19
2022-12-18T17:07:57.791Z,81.24
2022-12-18T17:10:44.370Z,80.84
2022-12-18T17:13:30.606Z,81.07
2022-12-18T17:16:17.685Z,80.87
2022-12-18T17:19:03.955Z,81.10
2022-12-18T17:21:50.358Z,81.35
2022-12-18T17:24:36.836Z,81.64
2022-12-18T17:27:23.616Z,81.79
2022-12-18T17:30:10.734Z,81.61
2022-12-18T17:32:57.404Z,81.63
2022-12-18T17:35:44.069Z,81.78
2022-12-18T17:38:30.869Z,82.03
2022-12-18T17:41:17.617Z,81.46
2022-12-18T17:44:05.549Z,81.94
2022-12-18T17:47:13.040Z,81.76
2022-12-18T17:49:59.803Z,81.69
2022-12-18T17:52:46.335Z,81.74
2022-12-18T17:55:32.852Z,81.98
2022-12-18T17:58:19.142Z,82.41
2022-12-18T18:01:06.774Z,82.10
2022-12-18T18:03:55.850Z,82.33
2022-12-18T18:06:42.496Z,81.86
2022-12-18T18:09:28.882Z,82.21
2022-12-18T18:12:33.501Z,82.08
2022-12-18T18:15:19.779Z,82.19
2022-12-18T18:18:06.287Z,82.01
2022-12-18T18:20:52.619Z,82.01
2022-12-18T18:23:40.964Z,81.81
2022-12-18T18:26:31.212Z,81.85
2022-12-18T18:29:20.060Z,81.69
2022-12-18T18:32:06.222Z,81.51
2022-12-18T18:34:52.766Z,81.80
2022-12-18T18:37:39.230Z,81.67
2022-12-18T18:40:28.138Z,81.71
2022-12-18T18:43:14.983Z,82.03
2022-12-18T18:46:01.975Z,81.85
2022-12-18T18:48:48.243Z,81.48
2022-12-18T18:51:35.493Z,81.36
2022-12-18T18:54:22.309Z,81.02
2022-12-18T18:57:20.358Z,81.29
2022-12-18T19:00:08.476Z,81.33
2022-12-18T19:03:00.400Z,81.05
2022-12-18T19:05:51.784Z,81.01
2022-12-18T19:08:39.177Z,81.34
2022-12-18T19:11:45.493Z,81.21
2022-12-18T19:14:31.932Z,81.31
2022-12-18T19:17:18.344Z,81.11
2022-12-18T19:20:05.600Z,81.09
2022-12-18T19:22:55.681Z,81.21
2022-12-18T19:25:42.735Z,81.24
2022-12-18T19:28:29.188Z,81.33
2022-12-18T19:31:19.982Z,81.33
2022-12-18T19:34:09.617Z,81.20
2022-12-18T19:36:59.706Z,81.35
2022-12-18T19:39:46.470Z,81.04
2022-12-18T19:42:35.534Z,80.89
2022-12-18T19:45:22.095Z,80.83
2022-12-18T19:48:09.872Z,81.10
2022-12-18T19:50:56.128Z,81.30
2022-12-18T19:53:42.832Z,81.35
2022-12-18T19:56:31.546Z,81.29
2022-12-18T19:59:18.261Z,80.99
2022-12-18T20:02:05.112Z,81.15
2022-12-18T20:04:51.788Z,81.22
2022-12-18T20:07:38.273Z,81.24
2022-12-18T20:10:26.322Z,81.07
2022-12-18T20:13:12.821Z,81.01
2022-12-18T20:16:02.005Z,81.15
2022-12-18T20:18:49.144Z,80.98
2022-12-18T20:21:35.581Z,80.93
2022-12-18T20:24:21.959Z,80.78
2022-12-18T20:27:14.040Z,80.77
2022-12-18T20:30:01.894Z,80.56
2022-12-18T20:32:48.159Z,80.60
2022-12-18T20:35:34.413Z,80.63
2022-12-18T20:38:21.308Z,80.63
2022-12-18T20:41:10.819Z,80.49
2022-12-18T20:43:57.300Z,80.27
2022-12-18T20:46:43.831Z,80.04
2022-12-18T20:49:30.179Z,80.17
2022-12-18T20:52:16.683Z,80.54
2022-12-18T20:55:05.516Z,80.27
2022-12-18T20:57:52.832Z,80.19
2022-12-18T21:00:39.549Z,80.15
2022-12-18T21:03:25.945Z,79.91
2022-12-18T21:06:13.045Z,80.08
2022-12-18T21:08:59.638Z,79.99
2022-12-18T21:12:06.375Z,80.06
2022-12-18T21:14:52.634Z,79.75
2022-12-18T21:17:44.064Z,79.81
2022-12-18T21:20:31.604Z,79.86
2022-12-18T21:23:17.844Z,79.93
2022-12-18T21:26:25.105Z,79.74
2022-12-18T21:29:12.988Z,79.67
2022-12-18T21:31:59.407Z,79.65
2022-12-18T21:34:48.242Z,79.51
2022-12-18T21:37:34.776Z,79.57
2022-12-18T21:40:21.023Z,79.63
2022-12-18T21:43:28.037Z,79.68
2022-12-18T21:46:14.802Z,79.82
2022-12-18T21:49:02.118Z,79.55
2022-12-18T21:51:50.028Z,79.39
2022-12-18T21:54:36.815Z,79.44
2022-12-18T21:57:23.070Z,79.17
2022-12-18T22:00:17.423Z,79.04
2022-12-18T22:03:17.443Z,78.97
2022-12-18T22:06:09.384Z,78.86
2022-12-18T22:08:56.263Z,78.86
2022-12-18T22:11:42.435Z,78.82
2022-12-18T22:14:29.178Z,78.72
2022-12-18T22:17:15.763Z,78.72
2022-12-18T22:20:02.032Z,78.57
2022-12-18T22:22:48.764Z,78.61
2022-12-18T22:25:35.829Z,78.51
2022-12-18T22:28:44.712Z,78.51
2022-12-18T22:31:31.001Z,78.42
2022-12-18T22:34:22.632Z,78.56
2022-12-18T22:37:13.161Z,78.36
2022-12-18T22:39:59.395Z,78.12
2022-12-18T22:42:49.149Z,78.07
2022-12-18T22:45:38.507Z,78.32
2022-12-18T22:48:25.391Z,78.22
2022-12-18T22:51:15.686Z,78.25
2022-12-18T22:54:02.361Z,77.98
2022-12-18T22:56:49.127Z,78.08
2022-12-18T22:59:35.649Z,77.89
2022-12-18T23:02:22.345Z,77.83
2022-12-18T23:05:08.879Z,77.98
2022-12-18T23:07:54.941Z,77.91
2022-12-18T23:10:41.322Z,78.00
2022-12-18T23:13:28.183Z,77.97
2022-12-18T23:16:15.755Z,77.90
2022-12-18T23:19:03.170Z,77.82
2022-12-18T23:21:49.589Z,77.66
2022-12-18T23:24:35.609Z,77.80
2022-12-18T23:27:21.906Z,77.78
2022-12-18T23:30:08.673Z,77.97
2022-12-18T23:32:54.893Z,78.18
2022-12-18T23:35:41.191Z,78.13
2022-12-18T23:38:27.543Z,78.00
2022-12-18T23:41:14.639Z,77.98
2022-12-18T23:44:01.035Z,78.13
2022-12-18T23:46:47.345Z,78.27
2022-12-18T23:49:33.628Z,78.45
2022-12-18T23:52:19.945Z,78.38
2022-12-18T23:55:06.711Z,78.41
2022-12-18T23:57:53.131Z,78.27
